Time;durP1;ratioP1;P1;durP2;ratioP2;P2;SDS_P1;SDS_P2;PMS_P1;PMS_P2;Temp;Humidity;BMP_temperature;BMP_pressure;BME280_temperature;BME280_humidity;BME280_pressure;Samples;Min_cycle;Max_cycle;Signal;HPM_P1;HPM_P2
2023/09/09 00:01:01;;;;;;;6.93;5.37;;;17.90;99.90;;;18.84;100.00;98252.34;5079808;28;20513;-80
2023/09/09 00:03:31;;;;;;;11.40;5.50;;;17.80;99.90;;;18.77;100.00;98252.47;5078981;28;21015;-80
2023/09/09 00:06:08;;;;;;;8.03;5.10;;;17.80;99.90;;;18.75;100.00;98251.91;5076556;28;20464;-80
2023/09/09 00:08:39;;;;;;;10.23;5.80;;;17.80;99.90;;;18.73;100.00;98248.69;5078656;28;21019;-81
2023/09/09 00:11:11;;;;;;;6.73;5.13;;;17.90;99.90;;;18.75;100.00;98249.25;5079986;28;20550;-81
2023/09/09 00:13:42;;;;;;;13.57;6.40;;;17.80;99.90;;;18.69;100.00;98247.53;5079029;28;20568;-80
2023/09/09 00:16:12;;;;;;;9.40;4.80;;;17.80;99.90;;;18.69;100.00;98252.03;5079267;28;20495;-81
2023/09/09 00:18:43;;;;;;;11.37;5.47;;;17.70;99.90;;;18.62;100.00;98251.34;5079038;28;20468;-80
2023/09/09 00:21:14;;;;;;;8.30;5.30;;;17.70;99.90;;;18.57;100.00;98247.53;5077960;28;20463;-80
2023/09/09 00:23:46;;;;;;;12.23;5.47;;;17.60;99.90;;;18.61;100.00;98247.88;5077155;28;20474;-80
2023/09/09 00:26:17;;;;;;;6.40;5.20;;;17.50;99.90;;;18.55;100.00;98254.94;5077788;28;20456;-80
2023/09/09 00:28:46;;;;;;;5.63;4.97;;;17.60;99.90;;;18.51;100.00;98248.47;5077849;28;20844;-80
2023/09/09 00:31:15;;;;;;;7.17;5.47;;;17.60;99.90;;;18.48;100.00;98251.56;5077796;28;20456;-80
2023/09/09 00:33:46;;;;;;;12.80;5.50;;;17.50;99.90;;;18.47;100.00;98249.13;5076989;28;20926;-81
2023/09/09 00:36:15;;;;;;;10.37;5.20;;;17.50;99.90;;;18.46;100.00;98245.72;5078854;28;21221;-81
2023/09/09 00:38:45;;;;;;;12.33;4.90;;;17.40;99.90;;;18.43;100.00;98251.44;5076424;28;20961;-80
2023/09/09 00:41:17;;;;;;;7.57;5.20;;;17.50;99.90;;;18.42;100.00;98247.22;5077243;28;20868;-81
2023/09/09 00:43:47;;;;;;;7.10;5.67;;;17.40;99.90;;;18.31;100.00;98244.56;5076259;28;20534;-81
2023/09/09 00:46:18;;;;;;;9.37;6.17;;;17.50;99.90;;;18.29;100.00;98244.78;5077603;28;20448;-80
2023/09/09 00:48:47;;;;;;;10.23;4.83;;;17.30;99.90;;;18.29;100.00;98236.84;5077315;28;20467;-80
2023/09/09 00:51:17;;;;;;;20.10;5.80;;;17.30;99.90;;;18.22;100.00;98236.19;5078372;28;20513;-80
2023/09/09 00:53:49;;;;;;;8.63;5.80;;;17.20;99.90;;;18.15;100.00;98238.13;5077838;28;20514;-81
2023/09/09 00:56:19;;;;;;;11.80;5.57;;;17.20;99.90;;;18.18;100.00;98237.66;5076543;28;20839;-81
2023/09/09 00:58:48;;;;;;;15.27;5.70;;;17.30;99.90;;;18.17;100.00;98238.69;5076641;28;20846;-81
2023/09/09 01:01:19;;;;;;;8.57;6.10;;;17.30;99.90;;;18.18;100.00;98235.03;5076294;28;20956;-81
2023/09/09 01:03:53;;;;;;;11.83;5.43;;;17.30;99.90;;;18.15;100.00;98237.31;5077413;28;20563;-80
2023/09/09 01:06:23;;;;;;;9.20;5.43;;;17.30;99.90;;;18.12;100.00;98238.56;5078591;28;21044;-81
2023/09/09 01:08:54;;;;;;;7.93;4.57;;;17.30;99.90;;;18.17;100.00;98236.06;5076890;28;20452;-80
2023/09/09 01:11:24;;;;;;;6.80;5.13;;;17.30;99.90;;;18.17;100.00;98230.75;5078257;28;20487;-80
2023/09/09 01:13:54;;;;;;;9.23;5.40;;;17.10;99.90;;;18.08;100.00;98229.50;5076151;28;20487;-81
2023/09/09 01:16:25;;;;;;;7.13;5.13;;;17.00;99.90;;;18.04;100.00;98239.75;5077645;28;20462;-80
2023/09/09 01:18:56;;;;;;;11.50;5.17;;;17.00;99.90;;;17.98;100.00;98227.41;5078682;28;20467;-81
2023/09/09 01:21:30;;;;;;;6.40;4.90;;;17.10;99.90;;;17.94;100.00;98234.22;5075793;28;20612;-80
2023/09/09 01:24:01;;;;;;;9.73;5.23;;;17.00;99.90;;;17.94;100.00;98230.75;5076388;28;20551;-81
2023/09/09 01:26:32;;;;;;;10.30;5.80;;;16.90;99.90;;;17.98;100.00;98231.88;5076622;28;20500;-81
2023/09/09 01:29:03;;;;;;;7.23;5.60;;;16.90;99.90;;;17.97;100.00;98231.09;5078050;28;20455;-80
2023/09/09 01:31:32;;;;;;;10.80;4.97;;;16.90;99.90;;;17.93;100.00;98223.84;5076226;28;20997;-80
2023/09/09 01:34:02;;;;;;;8.83;5.73;;;16.90;99.90;;;17.93;100.00;98224.66;5076596;28;20491;-80
2023/09/09 01:36:31;;;;;;;7.50;5.53;;;16.70;99.90;;;17.88;100.00;98227.16;5075585;28;20456;-80
2023/09/09 01:39:03;;;;;;;6.20;4.70;;;16.70;99.90;;;17.86;100.00;98233.72;5074991;28;20479;-81
2023/09/09 01:41:33;;;;;;;7.23;5.00;;;16.70;99.90;;;17.84;100.00;98227.88;5074480;28;21435;-80
2023/09/09 01:44:04;;;;;;;10.80;5.93;;;16.70;99.90;;;17.83;100.00;98229.72;5077002;28;20499;-81
2023/09/09 01:46:34;;;;;;;6.40;4.80;;;16.70;99.90;;;17.84;100.00;98231.31;5075331;28;20456;-80
2023/09/09 01:49:04;;;;;;;9.47;5.30;;;16.70;99.90;;;17.77;100.00;98229.81;5075972;28;20967;-80
2023/09/09 01:51:35;;;;;;;13.93;5.60;;;16.80;99.90;;;17.75;100.00;98226.59;5074116;28;20472;-80
2023/09/09 01:54:07;;;;;;;11.23;5.40;;;16.80;99.90;;;17.63;100.00;98223.13;5073618;28;20487;-80
2023/09/09 01:56:36;;;;;;;7.80;5.27;;;16.80;99.90;;;17.65;100.00;98232.44;5075091;28;20888;-80
2023/09/09 01:59:06;;;;;;;7.57;5.20;;;16.70;99.90;;;17.63;100.00;98233.72;5076465;28;20468;-80
2023/09/09 02:01:36;;;;;;;10.97;5.70;;;16.70;99.90;;;17.62;100.00;98232.09;5075594;28;20879;-81
2023/09/09 02:04:06;;;;;;;6.50;5.23;;;16.60;99.90;;;17.58;100.00;98231.72;5074492;28;20551;-80
2023/09/09 02:06:35;;;;;;;12.80;4.83;;;16.70;99.90;;;17.55;100.00;98232.16;5076365;28;20486;-80
2023/09/09 02:09:08;;;;;;;7.97;5.60;;;16.70;99.90;;;17.47;100.00;98230.66;5075141;28;20459;-80
2023/09/09 02:11:38;;;;;;;8.47;5.93;;;16.70;99.90;;;17.49;100.00;98233.84;5074738;28;20475;-80
2023/09/09 02:14:08;;;;;;;9.07;5.80;;;16.60;99.90;;;17.45;100.00;98237.19;5076493;28;20914;-80
2023/09/09 02:16:37;;;;;;;9.53;5.37;;;16.60;99.90;;;17.43;100.00;98242.69;5076019;28;20472;-81
2023/09/09 02:19:07;;;;;;;6.80;4.90;;;16.50;99.90;;;17.45;100.00;98240.66;5075988;28;20537;-81
2023/09/09 02:21:37;;;;;;;8.03;4.57;;;16.50;99.90;;;17.39;100.00;98238.09;5077829;28;20463;-80
2023/09/09 02:24:09;;;;;;;10.40;6.27;;;16.50;99.90;;;17.36;100.00;98239.34;5075819;28;20505;-81
2023/09/09 02:26:39;;;;;;;6.67;4.90;;;16.50;99.90;;;17.41;100.00;98236.03;5075019;28;20994;-80
2023/09/09 02:29:09;;;;;;;9.03;5.23;;;16.40;99.90;;;17.41;100.00;98236.03;5076575;28;20471;-80
2023/09/09 02:31:39;;;;;;;10.63;5.47;;;16.30;99.90;;;17.39;100.00;98238.09;5074268;28;20463;-79
2023/09/09 02:34:09;;;;;;;7.07;5.20;;;16.40;99.90;;;17.39;100.00;98244.19;5076517;28;20922;-80
2023/09/09 02:36:43;;;;;;;6.47;4.77;;;16.20;99.90;;;17.40;100.00;98240.50;5074353;28;20464;-80
2023/09/09 02:39:14;;;;;;;8.47;5.77;;;16.20;99.90;;;17.41;100.00;98238.69;5077348;28;20459;-81
2023/09/09 02:41:44;;;;;;;7.87;5.53;;;16.20;99.90;;;17.34;100.00;98235.31;5073697;28;20850;-80
2023/09/09 02:44:15;;;;;;;12.23;6.10;;;16.20;99.90;;;17.24;100.00;98241.16;5072909;28;20459;-80
2023/09/09 02:46:44;;;;;;;9.90;5.00;;;16.30;99.90;;;17.16;100.00;98233.53;5072652;28;20464;-80
2023/09/09 02:49:15;;;;;;;7.77;5.07;;;16.30;99.90;;;17.13;100.00;98239.28;5071361;28;20468;-80
2023/09/09 02:51:45;;;;;;;7.63;5.70;;;16.30;99.90;;;17.15;100.00;98231.91;5074085;28;21036;-80
2023/09/09 02:54:17;;;;;;;8.60;5.60;;;16.30;99.90;;;17.16;100.00;98230.88;5074009;28;20472;-78
2023/09/09 02:56:46;;;;;;;8.40;5.53;;;16.20;99.90;;;17.11;100.00;98241.34;5071170;28;20452;-80
2023/09/09 02:59:17;;;;;;;12.33;6.10;;;16.20;99.90;;;17.11;100.00;98230.78;5071654;28;20456;-81
2023/09/09 03:01:46;;;;;;;9.87;6.23;;;16.10;99.90;;;17.09;100.00;98235.47;5071706;28;20459;-80
2023/09/09 03:04:16;;;;;;;9.30;5.27;;;16.10;99.90;;;17.10;100.00;98232.59;5071650;28;20457;-80
2023/09/09 03:06:46;;;;;;;12.50;5.63;;;16.10;99.90;;;17.08;100.00;98233.84;5072945;28;20479;-82
2023/09/09 03:09:17;;;;;;;10.13;5.77;;;16.10;99.90;;;17.05;100.00;98232.44;5070812;28;20460;-82
2023/09/09 03:11:47;;;;;;;7.87;5.40;;;16.10;99.90;;;17.01;100.00;98233.94;5070132;28;20495;-81
2023/09/09 03:14:19;;;;;;;7.97;4.90;;;16.10;99.90;;;17.02;100.00;98224.16;5071782;28;20461;-78
2023/09/09 03:16:48;;;;;;;8.93;6.00;;;16.00;99.90;;;17.02;100.00;98234.72;5073647;28;20475;-77
2023/09/09 03:19:18;;;;;;;7.23;5.10;;;16.00;99.90;;;16.96;100.00;98227.72;5072588;28;20547;-79
2023/09/09 03:21:48;;;;;;;9.10;5.90;;;16.00;99.90;;;16.94;100.00;98224.47;5074685;28;20456;-78
2023/09/09 03:24:20;;;;;;;11.27;5.57;;;16.00;99.90;;;16.91;100.00;98232.84;5073745;28;21223;-78
2023/09/09 03:26:51;;;;;;;12.70;5.70;;;16.00;99.90;;;16.93;100.00;98223.69;5072702;28;20455;-78
2023/09/09 03:29:21;;;;;;;6.83;5.17;;;15.80;99.90;;;16.93;100.00;98223.69;5072558;28;20468;-79
2023/09/09 03:31:52;;;;;;;7.30;5.53;;;15.80;99.90;;;16.94;100.00;98227.09;5072571;28;20475;-80
2023/09/09 03:34:21;;;;;;;10.17;6.30;;;15.90;99.90;;;16.92;100.00;98226.53;5075690;28;20455;-80
2023/09/09 03:36:59;;;;;;;6.73;5.10;;;15.80;99.90;;;16.92;100.00;98224.69;5074481;28;20499;-80
2023/09/09 03:39:32;;;;;;;6.90;5.60;;;15.80;99.90;;;16.90;100.00;98220.69;5075570;28;20455;-78
2023/09/09 03:42:06;;;;;;;6.73;5.40;;;15.80;99.90;;;16.87;100.00;98229.06;5075102;28;20486;-81
2023/09/09 03:44:37;;;;;;;8.10;5.00;;;15.70;99.90;;;16.84;100.00;98226.84;5074333;28;20530;-80
2023/09/09 03:47:09;;;;;;;8.80;5.00;;;15.80;99.90;;;16.82;100.00;98223.63;5071280;28;20917;-80
2023/09/09 03:49:39;;;;;;;9.03;5.50;;;15.80;99.90;;;16.82;100.00;98228.91;5072256;28;20472;-80
2023/09/09 03:52:09;;;;;;;17.50;5.33;;;15.70;99.90;;;16.75;100.00;98225.53;5071896;28;20464;-80
2023/09/09 03:54:41;;;;;;;9.73;5.30;;;15.70;99.90;;;16.73;100.00;98222.31;5074873;28;20468;-80
2023/09/09 03:57:11;;;;;;;8.97;5.30;;;15.70;99.90;;;16.68;100.00;98228.25;5073164;28;20465;-80
2023/09/09 03:59:42;;;;;;;9.80;5.00;;;15.80;99.90;;;16.71;100.00;98229.63;5075753;28;20582;-80
2023/09/09 04:02:12;;;;;;;7.73;5.73;;;15.70;99.90;;;16.67;100.00;98233.75;5073555;28;20448;-80
2023/09/09 04:04:43;;;;;;;8.23;5.90;;;15.70;99.90;;;16.66;100.00;98226.88;5072130;28;20495;-81
2023/09/09 04:07:13;;;;;;;8.00;5.60;;;15.60;99.90;;;16.67;100.00;98233.75;5075578;28;21016;-81
2023/09/09 04:09:46;;;;;;;9.83;5.53;;;15.60;99.90;;;16.68;100.00;98230.09;5071481;28;20876;-80
2023/09/09 04:12:16;;;;;;;6.67;4.77;;;15.60;99.90;;;16.62;100.00;98230.97;5072933;28;20496;-81
2023/09/09 04:14:47;;;;;;;10.80;5.50;;;15.60;99.90;;;16.63;100.00;98232.56;5075984;28;20463;-80
2023/09/09 04:17:18;;;;;;;8.07;5.90;;;15.50;99.90;;;16.64;100.00;98234.19;5072968;28;21312;-80
2023/09/09 04:19:48;;;;;;;6.90;5.70;;;15.50;99.90;;;16.58;100.00;98230.59;5071333;28;20458;-81
2023/09/09 04:22:17;;;;;;;11.63;5.63;;;15.60;99.90;;;16.59;100.00;98232.22;5072251;28;20486;-80
2023/09/09 04:24:49;;;;;;;7.07;5.03;;;15.50;99.90;;;16.57;100.00;98235.06;5070554;28;20467;-81
2023/09/09 04:27:18;;;;;;;11.27;5.00;;;15.50;99.90;;;16.53;100.00;98238.34;5072186;28;20506;-80
2023/09/09 04:29:48;;;;;;;10.17;5.47;;;15.50;99.90;;;16.55;100.00;98236.31;5072701;28;20471;-81
2023/09/09 04:32:18;;;;;;;7.70;5.30;;;15.50;99.90;;;16.53;100.00;98241.78;5074645;28;20456;-80
2023/09/09 04:34:48;;;;;;;8.40;5.70;;;15.40;99.90;;;16.46;100.00;98232.31;5073023;28;20869;-80
2023/09/09 04:37:18;;;;;;;5.80;4.63;;;15.50;99.90;;;16.37;100.00;98244.22;5075250;28;20595;-80
2023/09/09 04:39:50;;;;;;;6.80;4.90;;;15.50;99.90;;;16.33;100.00;98243.03;5076821;28;20461;-82
2023/09/09 04:42:21;;;;;;;9.80;4.80;;;15.50;99.90;;;16.30;100.00;98239.00;5072440;28;20477;-80
2023/09/09 04:44:51;;;;;;;6.17;5.23;;;15.40;99.90;;;16.34;100.00;98234.09;5073029;28;20860;-80
2023/09/09 04:47:20;;;;;;;11.27;5.07;;;15.30;99.90;;;16.32;100.00;98238.75;5078590;28;20497;-80
2023/09/09 04:49:50;;;;;;;10.47;5.60;;;15.30;99.90;;;16.30;100.00;98233.72;5077671;28;20509;-80
2023/09/09 04:52:20;;;;;;;9.87;5.33;;;15.30;99.90;;;16.29;100.00;98242.66;5079513;28;21057;-80
2023/09/09 04:54:49;;;;;;;7.10;4.73;;;15.20;99.90;;;16.32;100.00;98236.13;5079059;28;20987;-80
2023/09/09 04:57:19;;;;;;;11.60;5.83;;;15.20;99.90;;;16.33;100.00;98249.13;5079596;28;20499;-80
2023/09/09 04:59:49;;;;;;;8.27;5.57;;;15.30;99.90;;;16.32;100.00;98246.69;5077423;28;20469;-80
2023/09/09 05:02:18;;;;;;;10.47;5.63;;;15.20;99.90;;;16.28;100.00;98242.88;5078463;28;20877;-80
2023/09/09 05:04:48;;;;;;;8.17;5.63;;;15.20;99.90;;;16.33;100.00;98237.75;5079304;28;20543;-80
2023/09/09 05:07:19;;;;;;;9.73;6.13;;;15.20;99.90;;;16.27;100.00;98244.72;5076800;28;20459;-80
2023/09/09 05:09:51;;;;;;;11.00;5.00;;;15.20;99.90;;;16.26;100.00;98237.00;5077476;28;20552;-80
2023/09/09 05:12:22;;;;;;;7.77;5.27;;;15.20;99.90;;;16.18;100.00;98243.38;5077357;28;20459;-79
2023/09/09 05:14:52;;;;;;;13.20;5.60;;;15.10;99.90;;;16.12;100.00;98244.25;5077291;28;20464;-80
2023/09/09 05:17:21;;;;;;;9.53;5.13;;;15.10;99.90;;;16.15;100.00;98245.63;5077748;28;20944;-80
2023/09/09 05:19:50;;;;;;;7.57;5.30;;;15.10;99.90;;;16.13;100.00;98247.69;5074556;28;20459;-80
2023/09/09 05:22:22;;;;;;;7.47;4.90;;;15.10;99.90;;;16.16;100.00;98252.53;5078324;28;20451;-80
2023/09/09 05:24:54;;;;;;;7.87;4.97;;;15.00;99.90;;;16.20;100.00;98251.06;5076849;28;21046;-80
2023/09/09 05:27:24;;;;;;;6.00;4.47;;;15.10;99.90;;;16.21;100.00;98258.75;5077178;28;20475;-80
2023/09/09 05:29:54;;;;;;;20.33;6.20;;;15.10;99.90;;;16.20;100.00;98259.81;5076511;28;20460;-80
2023/09/09 05:32:25;;;;;;;8.70;6.03;;;15.20;99.90;;;16.21;100.00;98255.34;5078050;28;21029;-80
2023/09/09 05:34:56;;;;;;;7.30;4.83;;;15.10;99.90;;;16.22;100.00;98263.03;5079520;28;20543;-80
2023/09/09 05:37:27;;;;;;;8.67;5.87;;;15.20;99.90;;;16.25;100.00;98259.13;5077754;28;20480;-81
2023/09/09 05:39:58;;;;;;;6.10;4.90;;;15.30;99.90;;;16.22;100.00;98263.03;5078853;28;20457;-81
2023/09/09 05:42:31;;;;;;;10.60;5.07;;;15.30;99.90;;;16.24;100.00;98261.00;5078295;28;20562;-81
2023/09/09 05:45:03;;;;;;;9.53;5.10;;;15.20;99.90;;;16.23;100.00;98267.28;5078594;28;20470;-80
2023/09/09 05:47:34;;;;;;;9.57;5.70;;;15.10;99.90;;;16.23;100.00;98269.94;5079851;28;20468;-80
2023/09/09 05:50:08;;;;;;;8.83;5.77;;;15.10;99.90;;;16.25;100.00;98262.59;5078550;28;20980;-81
2023/09/09 05:52:38;;;;;;;8.07;5.63;;;15.20;99.90;;;16.23;100.00;98269.94;5079050;28;20548;-81
2023/09/09 05:55:10;;;;;;;12.83;6.00;;;15.30;99.90;;;16.23;100.00;98275.19;5079047;28;20457;-81
2023/09/09 05:57:41;;;;;;;7.70;5.27;;;15.30;99.90;;;16.19;100.00;98268.75;5077631;28;20574;-81
2023/09/09 06:00:11;;;;;;;8.37;5.63;;;15.20;99.90;;;16.17;100.00;98262.06;5078754;28;20460;-81
2023/09/09 06:02:41;;;;;;;7.40;5.60;;;15.20;99.90;;;16.16;100.00;98269.19;5079533;28;20872;-80
2023/09/09 06:05:11;;;;;;;6.43;5.27;;;15.10;99.90;;;16.16;100.00;98277.09;5078048;28;20460;-81
2023/09/09 06:07:41;;;;;;;5.97;4.67;;;15.20;99.90;;;16.19;100.00;98271.38;5074851;28;20456;-80
2023/09/09 06:10:14;;;;;;;8.17;5.03;;;15.10;99.90;;;16.14;100.00;98271.22;5076027;28;20612;-80
2023/09/09 06:12:43;;;;;;;7.90;5.80;;;15.10;99.90;;;16.14;100.00;98273.84;5078410;28;20497;-80
2023/09/09 06:15:13;;;;;;;11.03;6.30;;;15.10;99.90;;;16.15;100.00;98272.84;5077657;28;20467;-81
2023/09/09 06:17:45;;;;;;;7.70;5.97;;;15.20;99.90;;;16.15;100.00;98278.09;5078601;28;21400;-80
2023/09/09 06:20:15;;;;;;;9.40;5.30;;;15.20;99.90;;;16.20;100.00;98280.91;5076873;28;20509;-81
2023/09/09 06:22:45;;;;;;;7.17;5.70;;;15.10;99.90;;;16.27;100.00;98280.84;5076320;28;20463;-80
2023/09/09 06:25:17;;;;;;;8.87;6.10;;;15.10;99.90;;;16.30;100.00;98277.78;5074736;28;20470;-80
2023/09/09 06:27:47;;;;;;;12.07;4.97;;;15.20;99.90;;;16.25;100.00;98275.78;5077862;28;20467;-80
2023/09/09 06:30:16;;;;;;;11.23;5.43;;;15.40;99.90;;;16.24;100.00;98279.47;5078577;28;21779;-81
2023/09/09 06:32:47;;;;;;;7.93;5.33;;;15.50;99.90;;;16.26;100.00;98280.03;5077605;28;20474;-81
2023/09/09 06:35:17;;;;;;;9.00;6.00;;;15.50;99.90;;;16.31;100.00;98272.28;5077698;28;20467;-81
2023/09/09 06:37:47;;;;;;;8.20;5.60;;;15.50;99.90;;;16.35;100.00;98284.00;5077469;28;20531;-80
2023/09/09 06:40:19;;;;;;;6.30;5.23;;;15.60;99.90;;;16.41;100.00;98279.72;5077278;28;20512;-80
2023/09/09 06:42:49;;;;;;;9.67;6.10;;;15.60;99.90;;;16.44;100.00;98282.72;5075669;28;20472;-80
2023/09/09 06:45:18;;;;;;;5.70;5.10;;;15.60;99.90;;;16.50;100.00;98281.03;5077679;28;20493;-79
2023/09/09 06:47:48;;;;;;;8.97;5.53;;;15.60;99.90;;;16.52;100.00;98286.91;5076797;28;20460;-80
2023/09/09 06:50:18;;;;;;;8.83;6.23;;;15.60;99.90;;;16.56;100.00;98290.72;5076632;28;20462;-80
2023/09/09 06:52:50;;;;;;;8.63;5.77;;;15.60;99.90;;;16.59;100.00;98280.53;5077498;28;20464;-80
2023/09/09 06:55:21;;;;;;;6.60;5.40;;;15.60;99.90;;;16.63;100.00;98294.13;5077635;28;20471;-79
2023/09/09 06:57:51;;;;;;;7.47;5.10;;;15.60;99.90;;;16.68;100.00;98293.47;5076963;28;20541;-80
2023/09/09 07:00:22;;;;;;;10.33;5.87;;;15.70;99.90;;;16.75;100.00;98288.91;5075753;28;21021;-80
2023/09/09 07:02:53;;;;;;;9.07;5.80;;;15.70;99.90;;;16.80;100.00;98289.09;5077596;28;20513;-80
2023/09/09 07:05:24;;;;;;;15.00;5.67;;;15.80;99.90;;;16.83;100.00;98291.28;5077926;28;20463;-80
2023/09/09 07:07:54;;;;;;;7.30;5.73;;;15.90;99.90;;;16.87;100.00;98293.25;5074275;28;20460;-80
2023/09/09 07:10:25;;;;;;;7.00;5.67;;;15.90;99.90;;;16.91;100.00;98291.78;5074046;28;20502;-80
2023/09/09 07:12:55;;;;;;;10.97;5.60;;;16.00;99.90;;;17.00;100.00;98294.94;5076454;28;20460;-80
2023/09/09 07:15:24;;;;;;;7.03;5.20;;;16.10;99.90;;;17.04;100.00;98286.31;5077581;28;20557;-80
2023/09/09 07:17:55;;;;;;;18.43;6.43;;;16.20;99.90;;;17.10;100.00;98282.00;5076173;28;20572;-80
2023/09/09 07:20:25;;;;;;;8.03;5.27;;;16.20;99.90;;;17.15;100.00;98278.69;5077534;28;20460;-80
2023/09/09 07:22:56;;;;;;;9.90;5.67;;;16.20;99.90;;;17.17;100.00;98288.00;5075966;28;20473;-80
2023/09/09 07:25:28;;;;;;;12.43;5.37;;;16.40;99.90;;;17.23;100.00;98279.19;5075471;28;20468;-80
2023/09/09 07:27:57;;;;;;;16.73;5.97;;;16.40;99.90;;;17.29;100.00;98280.13;5073786;28;21444;-80
2023/09/09 07:30:27;;;;;;;9.63;6.20;;;16.40;99.90;;;17.38;100.00;98273.50;5074515;28;20460;-80
2023/09/09 07:32:57;;;;;;;6.70;5.40;;;16.50;99.90;;;17.41;100.00;98271.22;5074723;28;20992;-80
2023/09/09 07:35:29;;;;;;;11.83;6.80;;;16.60;99.90;;;17.47;100.00;98278.25;5077988;28;20470;-80
2023/09/09 07:37:59;;;;;;;12.10;5.27;;;16.70;99.90;;;17.52;100.00;98275.75;5076331;28;20476;-80
2023/09/09 07:40:30;;;;;;;9.17;5.87;;;16.70;99.90;;;17.59;100.00;98268.53;5078205;28;20494;-80
2023/09/09 07:43:00;;;;;;;8.40;5.50;;;16.80;99.90;;;17.66;100.00;98271.09;5075833;28;20467;-80
2023/09/09 07:45:31;;;;;;;8.23;5.60;;;16.80;99.90;;;17.73;100.00;98271.00;5075927;28;20495;-80
2023/09/09 07:48:01;;;;;;;8.03;5.40;;;16.80;99.90;;;17.79;100.00;98267.44;5076937;28;20461;-80
2023/09/09 07:50:30;;;;;;;9.23;5.90;;;16.90;99.90;;;17.84;100.00;98262.28;5075805;28;20460;-80
2023/09/09 07:53:01;;;;;;;9.73;6.40;;;17.00;99.90;;;17.91;100.00;98262.97;5077093;28;20541;-80
2023/09/09 07:55:33;;;;;;;15.53;6.30;;;17.10;99.90;;;17.98;100.00;98263.66;5076363;28;20962;-80
2023/09/09 07:58:04;;;;;;;8.63;6.03;;;17.10;99.90;;;18.03;100.00;98266.44;5077233;28;20581;-80
2023/09/09 08:00:36;;;;;;;24.73;6.93;;;17.20;99.90;;;18.10;100.00;98267.13;5076458;28;21017;-80
2023/09/09 08:03:07;;;;;;;7.27;5.60;;;17.20;99.90;;;18.18;100.00;98271.28;5076320;28;20466;-80
2023/09/09 08:05:37;;;;;;;12.63;6.10;;;17.30;99.90;;;18.25;100.00;98269.31;5075803;28;20483;-80
2023/09/09 08:08:07;;;;;;;11.30;6.07;;;17.40;99.90;;;18.31;100.00;98274.50;5077492;28;20481;-80
2023/09/09 08:10:38;;;;;;;7.00;5.10;;;17.50;99.90;;;18.37;100.00;98278.88;5076182;28;21057;-80
2023/09/09 08:13:08;;;;;;;8.77;6.27;;;17.60;99.90;;;18.43;100.00;98277.94;5079551;28;20456;-80
2023/09/09 08:15:37;;;;;;;9.67;5.50;;;17.60;99.90;;;18.50;100.00;98277.84;5078887;28;20494;-80
2023/09/09 08:18:09;;;;;;;9.03;6.27;;;17.70;99.90;;;18.55;100.00;98276.13;5079932;28;20500;-80
2023/09/09 08:20:39;;;;;;;9.20;6.00;;;17.80;99.90;;;18.63;100.00;98276.81;5078653;28;20893;-81
2023/09/09 08:23:10;;;;;;;8.00;5.50;;;17.80;99.90;;;18.71;100.00;98274.59;5079086;28;20818;-80
2023/09/09 08:25:42;;;;;;;8.07;6.37;;;17.90;99.90;;;18.79;100.00;98281.38;5078929;28;20455;-81
2023/09/09 08:28:11;;;;;;;6.53;5.60;;;18.00;99.90;;;18.86;100.00;98276.75;5078123;28;20867;-81
2023/09/09 08:30:42;;;;;;;8.90;6.40;;;18.10;99.90;;;18.93;100.00;98266.84;5079067;28;20472;-80
2023/09/09 08:33:12;;;;;;;8.03;5.90;;;18.10;99.90;;;19.01;100.00;98263.81;5078860;28;20462;-80
2023/09/09 08:35:43;;;;;;;12.07;6.13;;;18.20;99.90;;;19.07;100.00;98268.97;5079501;28;20466;-80
2023/09/09 08:38:12;;;;;;;9.40;5.50;;;18.30;99.90;;;19.17;100.00;98271.00;5079167;28;21002;-80
2023/09/09 08:40:56;;;;;;;9.13;5.47;;;18.40;99.90;;;19.25;100.00;98264.53;5081052;28;20995;-81
2023/09/09 08:43:42;;;;;;;8.53;5.90;;;18.50;99.90;;;19.30;100.00;98262.00;5077909;28;20546;-80
2023/09/09 08:46:14;;;;;;;9.00;5.40;;;18.60;99.90;;;19.36;100.00;98261.84;5078961;28;21517;-80
2023/09/09 08:48:45;;;;;;;7.13;6.20;;;18.70;99.90;;;19.43;100.00;98267.84;5079680;28;20535;-81
2023/09/09 08:51:19;;;;;;;11.30;6.40;;;18.70;99.90;;;19.50;100.00;98265.03;5077963;28;20964;-80
2023/09/09 08:53:54;;;;;;;6.00;5.33;;;18.80;99.90;;;19.57;100.00;98255.09;5080413;28;20545;-80
2023/09/09 08:56:26;;;;;;;10.20;6.10;;;18.90;99.90;;;19.68;100.00;98258.72;5079808;28;20454;-81
2023/09/09 08:58:57;;;;;;;9.40;6.20;;;19.00;99.90;;;19.74;100.00;98263.88;5078928;28;20882;-80
2023/09/09 09:01:29;;;;;;;6.83;5.53;;;19.10;99.90;;;19.81;100.00;98261.06;5079265;28;20463;-80
2023/09/09 09:04:01;;;;;;;9.00;5.63;;;19.10;99.90;;;19.93;100.00;98261.75;5078953;28;20550;-81
2023/09/09 09:06:32;;;;;;;7.50;5.83;;;19.20;99.90;;;19.96;100.00;98259.44;5079750;28;20453;-81
2023/09/09 09:09:02;;;;;;;8.17;5.90;;;19.30;99.90;;;20.03;100.00;98269.88;5075702;28;20485;-80
2023/09/09 09:11:33;;;;;;;11.93;5.63;;;19.40;99.90;;;20.12;100.00;98265.78;5078811;28;20827;-81
2023/09/09 09:14:09;;;;;;;15.10;6.27;;;19.50;99.90;;;20.18;100.00;98258.69;5078996;28;20875;-81
2023/09/09 09:16:41;;;;;;;7.37;5.93;;;19.60;99.90;;;20.25;100.00;98265.47;5076563;28;20479;-81
2023/09/09 09:19:21;;;;;;;12.40;6.33;;;19.70;99.90;;;20.31;100.00;98258.38;5078817;28;20490;-81
2023/09/09 09:21:51;;;;;;;15.80;5.13;;;19.70;99.90;;;20.37;100.00;98260.09;5077494;28;20468;-80
2023/09/09 09:24:23;;;;;;;6.77;5.57;;;19.80;99.90;;;20.44;100.00;98256.19;5076864;28;20580;-81
2023/09/09 09:26:54;;;;;;;8.03;5.10;;;19.90;99.90;;;20.51;100.00;98254.16;5078965;28;20464;-81
2023/09/09 09:29:24;;;;;;;8.87;6.20;;;19.90;99.90;;;20.60;100.00;98257.22;5078822;28;21024;-81
2023/09/09 09:31:55;;;;;;;8.83;6.17;;;20.00;99.90;;;20.68;100.00;98253.31;5078662;28;20468;-81
2023/09/09 09:34:35;;;;;;;7.97;5.67;;;20.10;99.90;;;20.75;100.00;98259.25;5078231;28;20452;-81
2023/09/09 09:37:10;;;;;;;8.37;6.23;;;20.20;99.90;;;20.85;100.00;98254.06;5080067;28;20554;-81
2023/09/09 09:39:40;;;;;;;9.90;5.90;;;20.30;99.90;;;20.92;100.00;98254.69;5078212;28;20522;-81
2023/09/09 09:42:14;;;;;;;11.37;6.33;;;20.40;99.90;;;20.99;100.00;98256.13;5080873;28;20471;-81
2023/09/09 09:44:44;;;;;;;6.27;5.33;;;20.50;99.90;;;21.05;100.00;98251.66;5078584;28;20456;-81
2023/09/09 09:47:15;;;;;;;6.53;5.20;;;20.50;99.90;;;21.13;100.00;98261.06;5078109;28;20456;-81
2023/09/09 09:49:48;;;;;;;11.27;5.73;;;20.60;99.90;;;21.22;100.00;98263.03;5076862;28;20466;-81
2023/09/09 09:52:26;;;;;;;8.90;5.67;;;20.70;99.90;;;21.29;100.00;98252.19;5077621;28;20466;-81
2023/09/09 09:54:56;;;;;;;7.70;5.40;;;20.80;99.90;;;21.35;100.00;98254.66;5080092;28;20475;-81
2023/09/09 09:57:30;;;;;;;10.23;4.87;;;20.80;99.90;;;21.41;100.00;98253.66;5077957;28;20520;-81
2023/09/09 10:00:00;;;;;;;7.90;6.10;;;20.90;99.90;;;21.48;100.00;98254.28;5081220;28;20481;-81
2023/09/09 10:02:31;;;;;;;6.37;4.97;;;21.00;99.90;;;21.55;100.00;98259.38;5077104;28;20447;-81
2023/09/09 10:05:03;;;;;;;9.63;4.60;;;21.10;99.90;;;21.64;100.00;98249.88;5077095;28;20460;-81
2023/09/09 10:07:36;;;;;;;10.00;4.90;;;21.10;99.90;;;21.72;100.00;98248.63;5077054;28;20779;-81
2023/09/09 10:10:10;;;;;;;6.53;4.90;;;21.30;99.90;;;21.81;100.00;98252.41;5075155;28;20456;-80
2023/09/09 10:12:51;;;;;;;4.57;4.10;;;21.40;99.90;;;21.90;100.00;98250.94;5077333;28;20462;-80
2023/09/09 10:15:22;;;;;;;7.77;4.77;;;21.40;99.90;;;21.98;100.00;98253.13;5076031;28;20487;-81
2023/09/09 10:17:53;;;;;;;9.93;5.27;;;21.50;99.90;;;22.06;100.00;98250.00;5077712;28;20931;-80
2023/09/09 10:20:25;;;;;;;14.73;4.70;;;21.60;99.90;;;22.16;100.00;98254.56;5077518;28;20495;-81
2023/09/09 10:22:59;;;;;;;8.70;4.67;;;21.70;99.90;;;22.22;100.00;98254.34;5077493;28;20464;-81
2023/09/09 10:25:32;;;;;;;7.63;4.93;;;21.80;99.90;;;22.29;100.00;98260.25;5078091;28;20548;-81